createdAt,value
2022-11-28T00:01:32.720Z,101106.78
2022-11-28T00:04:35.022Z,101105.72
2022-11-28T00:07:37.303Z,101114.44
2022-11-28T00:10:41.116Z,101117.81
2022-11-28T00:13:44.407Z,101109.84
2022-11-28T00:16:47.395Z,101122.19
2022-11-28T00:19:49.879Z,101121.25
2022-11-28T00:22:52.318Z,101126.97
2022-11-28T00:26:16.698Z,101112.63
2022-11-28T00:29:18.980Z,101124.34
2022-11-28T00:32:21.376Z,101101.41
2022-11-28T00:35:23.740Z,101118.19
2022-11-28T00:38:26.083Z,101110.81
2022-11-28T00:41:31.075Z,101116.06
2022-11-28T00:44:33.385Z,101126.84
2022-11-28T00:47:35.730Z,101120.22
2022-11-28T00:50:37.959Z,101115.19
2022-11-28T00:53:42.570Z,101124.81
2022-11-28T00:56:44.859Z,101126.44
2022-11-28T00:59:47.152Z,101130.44
2022-11-28T01:02:49.562Z,101136.38
2022-11-28T01:05:51.866Z,101122.66
2022-11-28T01:08:55.201Z,101136.72
2022-11-28T01:11:57.539Z,101130.97
2022-11-28T01:15:00.081Z,101125.50
2022-11-28T01:18:02.856Z,101122.31
2022-11-28T01:21:06.225Z,101108.91
2022-11-28T01:24:08.793Z,101120.50
2022-11-28T01:27:12.182Z,101115.50
2022-11-28T01:30:14.603Z,101118.50
2022-11-28T01:33:16.879Z,101118.75
2022-11-28T01:36:20.061Z,101114.03
2022-11-28T01:39:22.317Z,101114.31
2022-11-28T01:42:24.734Z,101112.13
2022-11-28T01:45:32.316Z,101107.53
2022-11-28T01:48:39.695Z,101099.78
2022-11-28T01:51:45.720Z,101082.44
2022-11-28T01:54:52.096Z,101092.31
2022-11-28T01:57:55.571Z,101087.03
2022-11-28T02:00:58.466Z,101080.91
2022-11-28T02:04:03.836Z,101082.38
2022-11-28T02:07:06.244Z,101080.78
2022-11-28T02:10:10.404Z,101075.97
2022-11-28T02:13:23.908Z,101068.66
2022-11-28T02:16:44.122Z,101065.59
2022-11-28T02:19:46.583Z,101071.78
2022-11-28T02:23:15.622Z,101064.66
2022-11-28T02:26:43.348Z,101065.84
2022-11-28T02:29:56.336Z,101065.38
2022-11-28T02:33:30.129Z,101055.69
2022-11-28T02:36:36.025Z,101055.53
2022-11-28T02:40:14.201Z,101054.47
2022-11-28T02:43:44.127Z,101047.19
2022-11-28T02:46:58.598Z,101062.00
2022-11-28T02:50:13.891Z,101051.00
2022-11-28T02:53:20.465Z,101048.75
2022-11-28T02:56:26.174Z,101040.47
2022-11-28T02:59:33.470Z,101042.53
2022-11-28T03:02:35.834Z,101038.50
2022-11-28T03:05:54.197Z,101038.28
2022-11-28T03:09:14.984Z,101043.59
2022-11-28T03:12:36.067Z,101033.91
2022-11-28T03:15:46.953Z,101042.59
2022-11-28T03:19:07.720Z,101041.34
2022-11-28T03:22:30.724Z,101042.41
2022-11-28T03:25:48.395Z,101036.53
2022-11-28T03:29:03.785Z,101020.31
2022-11-28T03:32:10.072Z,101016.53
2022-11-28T03:35:18.252Z,101014.56
2022-11-28T03:38:25.604Z,101024.19
2022-11-28T03:41:34.226Z,101003.41
2022-11-28T03:45:00.020Z,100998.59
2022-11-28T03:48:10.059Z,100994.81
2022-11-28T03:51:19.055Z,100988.03
2022-11-28T03:54:40.668Z,100976.13
2022-11-28T03:57:59.289Z,100974.06
2022-11-28T04:01:25.222Z,100976.19
2022-11-28T04:04:37.038Z,100969.53
2022-11-28T04:07:49.158Z,100973.34
2022-11-28T04:11:09.136Z,100964.31
2022-11-28T04:14:22.850Z,100966.75
2022-11-28T04:17:50.359Z,100966.88
2022-11-28T04:21:04.183Z,100955.81
2022-11-28T04:24:11.031Z,100952.81
2022-11-28T04:27:16.806Z,100943.13
2022-11-28T04:30:19.281Z,100941.50
2022-11-28T04:33:23.551Z,100939.38
2022-11-28T04:36:27.029Z,100947.22
2022-11-28T04:39:30.841Z,100946.19
2022-11-28T04:42:38.085Z,100951.72
2022-11-28T04:45:45.711Z,100959.66
2022-11-28T04:48:48.249Z,100954.78
2022-11-28T04:52:16.227Z,100964.19
2022-11-28T04:55:27.357Z,100958.53
2022-11-28T04:58:39.571Z,100948.53
2022-11-28T05:01:43.698Z,100947.34
2022-11-28T05:04:46.117Z,100951.94
2022-11-28T05:07:48.464Z,100954.94
2022-11-28T05:10:50.913Z,100948.81
2022-11-28T05:13:54.192Z,100954.66
2022-11-28T05:16:56.501Z,100961.63
2022-11-28T05:19:59.070Z,100964.19
2022-11-28T05:23:01.388Z,100967.81
2022-11-28T05:26:08.183Z,100953.59
2022-11-28T05:29:10.676Z,100948.03
2022-11-28T05:32:13.673Z,100963.13
2022-11-28T05:35:16.035Z,100961.97
2022-11-28T05:38:18.301Z,100962.31
2022-11-28T05:41:24.772Z,100967.97
2022-11-28T05:44:27.397Z,100965.94
2022-11-28T05:47:33.572Z,100970.88
2022-11-28T05:50:39.888Z,100972.53
2022-11-28T05:53:42.438Z,100982.13
2022-11-28T05:56:44.747Z,100970.50
2022-11-28T05:59:47.173Z,100984.50
2022-11-28T06:02:49.455Z,100987.78
2022-11-28T06:05:51.878Z,100989.69
2022-11-28T06:08:54.743Z,100995.56
2022-11-28T06:11:57.000Z,100988.28
2022-11-28T06:14:59.331Z,100980.59
2022-11-28T06:18:01.654Z,100978.41
2022-11-28T06:21:05.525Z,100989.59
2022-11-28T06:24:08.188Z,100966.31
2022-11-28T06:27:10.528Z,100979.34
2022-11-28T06:30:13.427Z,100966.00
2022-11-28T06:33:15.806Z,100982.53
2022-11-28T06:36:22.077Z,100988.06
2022-11-28T06:39:24.551Z,100980.75
2022-11-28T06:42:26.862Z,100987.56
2022-11-28T06:45:29.563Z,100979.22
2022-11-28T06:48:32.530Z,100985.19
2022-11-28T06:51:34.801Z,100996.66
2022-11-28T06:54:37.158Z,100997.22
2022-11-28T06:57:39.809Z,100996.69
2022-11-28T07:00:42.152Z,101007.69
2022-11-28T07:03:44.816Z,101014.50
2022-11-28T07:06:47.112Z,101013.13
2022-11-28T07:09:51.068Z,101009.28
2022-11-28T07:12:54.914Z,101002.47
2022-11-28T07:15:57.154Z,101005.56
2022-11-28T07:18:59.979Z,101013.34
2022-11-28T07:22:02.384Z,101017.22
2022-11-28T07:25:05.034Z,101013.16
2022-11-28T07:28:07.371Z,101010.81
2022-11-28T07:31:22.005Z,101006.25
2022-11-28T07:34:24.344Z,101005.56
2022-11-28T07:37:26.760Z,101006.50
2022-11-28T07:40:29.059Z,101007.63
2022-11-28T07:43:31.515Z,101006.03
2022-11-28T07:46:34.336Z,100998.56
2022-11-28T07:49:37.090Z,100983.19
2022-11-28T07:52:39.404Z,100986.72
2022-11-28T07:55:41.630Z,100973.91
2022-11-28T07:58:45.464Z,100986.06
2022-11-28T08:01:48.838Z,100971.47
2022-11-28T08:04:55.110Z,100985.41
2022-11-28T08:07:57.767Z,100982.88
2022-11-28T08:11:02.252Z,100976.28
2022-11-28T08:14:05.538Z,100971.78
2022-11-28T08:17:07.874Z,100968.72
2022-11-28T08:20:10.596Z,100960.44
2022-11-28T08:23:12.840Z,100966.38
2022-11-28T08:26:16.867Z,100965.34
2022-11-28T08:29:19.138Z,100958.47
2022-11-28T08:32:21.415Z,100967.81
2022-11-28T08:35:23.872Z,100969.97
2022-11-28T08:38:26.163Z,100973.72
2022-11-28T08:41:28.599Z,100975.25
2022-11-28T08:44:31.047Z,100987.00
2022-11-28T08:47:33.694Z,100978.38
2022-11-28T08:50:36.090Z,100987.63
2022-11-28T08:53:38.385Z,100993.34
2022-11-28T08:56:40.705Z,100986.66
2022-11-28T08:59:43.338Z,100990.22
2022-11-28T09:02:45.799Z,100994.81
2022-11-28T09:05:48.602Z,100993.59
2022-11-28T09:08:51.550Z,100992.06
2022-11-28T09:11:53.844Z,100986.53
2022-11-28T09:14:56.121Z,100981.03
2022-11-28T09:17:58.764Z,100986.88
2022-11-28T09:21:02.808Z,100977.13
2022-11-28T09:24:05.609Z,100970.75
2022-11-28T09:27:07.965Z,100978.22
2022-11-28T09:30:10.715Z,100960.44
2022-11-28T09:33:13.536Z,100963.34
2022-11-28T09:36:21.369Z,100965.78
2022-11-28T09:39:23.771Z,100955.59
2022-11-28T09:42:33.916Z,100960.13
2022-11-28T09:45:36.268Z,100952.53
2022-11-28T09:48:42.984Z,100949.94
2022-11-28T09:52:03.823Z,100943.94
2022-11-28T09:55:35.683Z,100942.41
2022-11-28T09:58:58.988Z,100936.03
2022-11-28T10:02:26.182Z,100938.28
2022-11-28T10:05:40.073Z,100934.16
2022-11-28T10:08:47.521Z,100926.69
2022-11-28T10:12:17.560Z,100922.34
2022-11-28T10:15:26.192Z,100925.09
2022-11-28T10:18:35.831Z,100927.03
2022-11-28T10:21:42.613Z,100904.75
2022-11-28T10:24:57.425Z,100911.31
2022-11-28T10:27:59.804Z,100915.44
2022-11-28T10:31:16.768Z,100910.31
2022-11-28T10:34:46.598Z,100915.25
2022-11-28T10:37:49.380Z,100904.22
2022-11-28T10:41:04.967Z,100907.63
2022-11-28T10:44:21.635Z,100907.06
2022-11-28T10:48:03.988Z,100902.63
2022-11-28T10:51:44.176Z,100881.84
2022-11-28T10:54:46.444Z,100887.63
2022-11-28T10:58:22.304Z,100885.16
2022-11-28T11:01:29.873Z,100876.44
2022-11-28T11:04:33.891Z,100862.09
2022-11-28T11:07:36.316Z,100866.09
2022-11-28T11:10:44.259Z,100868.03
2022-11-28T11:14:01.546Z,100870.84
2022-11-28T11:17:04.130Z,100870.38
2022-11-28T11:20:34.441Z,100877.34
2022-11-28T11:23:38.453Z,100868.34
2022-11-28T11:26:44.103Z,100869.78
2022-11-28T11:29:50.285Z,100854.97
2022-11-28T11:32:54.798Z,100861.16
2022-11-28T11:35:57.059Z,100855.97
2022-11-28T11:39:09.199Z,100857.28
2022-11-28T11:42:20.808Z,100860.75
2022-11-28T11:45:29.765Z,100860.81
2022-11-28T11:48:46.084Z,100855.72
2022-11-28T11:51:56.313Z,100842.84
2022-11-28T11:55:04.451Z,100839.19
2022-11-28T11:58:07.206Z,100861.66
2022-11-28T12:01:11.477Z,100831.72
2022-11-28T12:19:56.939Z,100836.34
2022-11-28T12:39:33.542Z,100832.09
2022-11-28T12:47:52.562Z,100829.75
2022-11-28T12:51:16.321Z,100823.22
2022-11-28T12:54:36.951Z,100822.03
2022-11-28T12:58:04.030Z,100829.22
2022-11-28T13:01:31.026Z,100822.28
2022-11-28T13:04:51.417Z,100805.88
2022-11-28T13:07:56.835Z,100809.16
2022-11-28T13:10:59.181Z,100814.53
2022-11-28T13:14:17.470Z,100800.91
2022-11-28T13:17:30.733Z,100811.03
2022-11-28T13:20:42.251Z,100804.19
2022-11-28T13:24:05.317Z,100807.06
2022-11-28T13:27:32.424Z,100801.22
2022-11-28T13:30:44.591Z,100802.31
2022-11-28T13:33:56.744Z,100795.19
2022-11-28T13:40:53.119Z,100800.38
2022-11-28T13:44:26.357Z,100797.16
2022-11-28T13:47:33.660Z,100800.38
2022-11-28T13:50:40.424Z,100792.06
2022-11-28T13:53:44.169Z,100800.91
2022-11-28T13:57:05.705Z,100795.34
2022-11-28T14:00:25.314Z,100800.44
2022-11-28T14:03:27.837Z,100792.19
2022-11-28T14:06:46.929Z,100800.28
2022-11-28T14:10:31.580Z,100795.97
2022-11-28T14:13:52.658Z,100788.59
2022-11-28T14:17:21.554Z,100786.06
2022-11-28T14:20:55.097Z,100784.66
2022-11-28T14:24:10.764Z,100779.91
2022-11-28T14:27:28.359Z,100780.00
2022-11-28T14:30:36.476Z,100780.06
2022-11-28T14:33:40.901Z,100777.97
2022-11-28T14:36:43.921Z,100778.84
2022-11-28T14:39:50.238Z,100776.00
2022-11-28T14:43:42.667Z,100778.94
2022-11-28T14:47:16.121Z,100777.78
2022-11-28T14:50:20.788Z,100785.25
2022-11-28T14:53:37.129Z,100782.63
2022-11-28T14:56:40.507Z,100772.75
2022-11-28T14:59:43.581Z,100778.09
2022-11-28T15:03:23.683Z,100776.78
2022-11-28T15:06:33.211Z,100776.13
2022-11-28T15:09:42.880Z,100777.75
2022-11-28T15:12:52.107Z,100783.47
2022-11-28T15:15:54.622Z,100775.00
2022-11-28T15:19:08.781Z,100783.94
2022-11-28T15:22:31.851Z,100789.91
2022-11-28T15:25:37.370Z,100802.53
2022-11-28T15:28:39.707Z,100788.38
2022-11-28T15:31:43.179Z,100805.50
2022-11-28T15:35:00.750Z,100797.22
2022-11-28T15:38:04.061Z,100789.84
2022-11-28T15:41:07.037Z,100789.03
2022-11-28T15:44:13.043Z,100795.50
2022-11-28T15:47:20.062Z,100798.44
2022-11-28T15:50:25.338Z,100810.47
2022-11-28T15:53:28.876Z,100799.94
2022-11-28T15:56:31.473Z,100802.97
2022-11-28T15:59:34.068Z,100811.19
2022-11-28T16:02:36.981Z,100804.78
2022-11-28T16:05:51.484Z,100808.56
2022-11-28T16:09:04.193Z,100819.63
2022-11-28T16:12:12.977Z,100812.38
2022-11-28T16:15:23.100Z,100807.28
2022-11-28T16:18:26.836Z,100804.16
2022-11-28T16:21:33.853Z,100817.69
2022-11-28T16:24:55.593Z,100809.63
2022-11-28T16:27:58.423Z,100815.41
2022-11-28T16:31:00.830Z,100808.81
2022-11-28T16:34:03.492Z,100811.44
2022-11-28T16:37:11.137Z,100811.78
2022-11-28T16:40:17.126Z,100811.63
2022-11-28T16:43:40.518Z,100805.69
2022-11-28T16:46:51.811Z,100807.31
2022-11-28T16:50:14.207Z,100815.88
2022-11-28T16:53:46.292Z,100813.25
2022-11-28T16:56:48.701Z,100805.53
2022-11-28T16:59:54.951Z,100818.88
2022-11-28T17:02:57.579Z,100808.16
2022-11-28T17:05:59.884Z,100797.13
2022-11-28T17:09:02.327Z,100809.31
2022-11-28T17:12:07.756Z,100814.59
2022-11-28T17:15:16.186Z,100815.88
2022-11-28T17:18:18.509Z,100796.94
2022-11-28T17:21:46.471Z,100812.09
2022-11-28T17:24:50.107Z,100808.97
2022-11-28T17:27:53.074Z,100803.69
2022-11-28T17:30:58.506Z,100801.22
2022-11-28T17:34:00.808Z,100813.91
2022-11-28T17:37:03.365Z,100807.97
2022-11-28T17:40:25.324Z,100806.66
2022-11-28T17:43:27.912Z,100814.91
2022-11-28T17:46:30.346Z,100808.16
2022-11-28T17:49:32.990Z,100815.56
2022-11-28T17:52:35.229Z,100820.16
2022-11-28T17:55:42.342Z,100817.19
2022-11-28T17:58:44.987Z,100820.34
2022-11-28T18:01:48.612Z,100817.72
2022-11-28T18:04:50.856Z,100811.28
2022-11-28T18:07:53.598Z,100813.09
2022-11-28T18:11:08.902Z,100825.44
2022-11-28T18:14:11.990Z,100830.22
2022-11-28T18:17:14.329Z,100818.72
2022-11-28T18:20:16.729Z,100813.41
2022-11-28T18:23:19.288Z,100807.00
2022-11-28T18:26:24.116Z,100815.41
2022-11-28T18:29:26.941Z,100826.59
2022-11-28T18:32:29.834Z,100824.47
2022-11-28T18:35:32.730Z,100822.47
2022-11-28T18:38:35.101Z,100810.44
2022-11-28T18:41:37.524Z,100819.84
2022-11-28T18:44:39.767Z,100829.59
2022-11-28T18:47:42.163Z,100820.34
2022-11-28T18:50:44.431Z,100831.38
2022-11-28T18:53:48.228Z,100830.22
2022-11-28T18:56:50.741Z,100815.25
2022-11-28T18:59:55.298Z,100811.59
2022-11-28T19:02:57.910Z,100815.25
2022-11-28T19:06:00.255Z,100827.06
2022-11-28T19:09:12.246Z,100820.16
2022-11-28T19:12:15.251Z,100820.16
2022-11-28T19:15:17.546Z,100812.75
2022-11-28T19:18:19.836Z,100817.69
2022-11-28T19:21:24.379Z,100803.38
2022-11-28T19:24:27.037Z,100818.66
2022-11-28T19:27:29.393Z,100827.06
2022-11-28T19:30:31.641Z,100821.31
2022-11-28T19:33:34.133Z,100809.56
2022-11-28T19:36:45.475Z,100827.25
2022-11-28T19:39:47.951Z,100817.69
2022-11-28T19:42:50.246Z,100813.91
2022-11-28T19:45:56.731Z,100829.38
2022-11-28T19:48:59.127Z,100818.84
2022-11-28T19:52:01.378Z,100816.38
2022-11-28T19:55:03.831Z,100817.50
2022-11-28T19:58:06.167Z,100822.47
2022-11-28T20:01:23.078Z,100825.94
2022-11-28T20:04:27.796Z,100827.59
2022-11-28T20:07:30.139Z,100814.09
2022-11-28T20:10:36.093Z,100817.03
2022-11-28T20:13:39.140Z,100826.59
2022-11-28T20:16:41.887Z,100809.13
2022-11-28T20:19:45.746Z,100822.81
2022-11-28T20:22:48.385Z,100801.06
2022-11-28T20:25:50.713Z,100804.34
2022-11-28T20:28:54.660Z,100818.03
2022-11-28T20:31:57.531Z,100807.31
2022-11-28T20:35:01.786Z,100814.41
2022-11-28T20:38:04.146Z,100809.59
2022-11-28T20:41:09.048Z,100806.66
2022-11-28T20:44:11.444Z,100822.13
2022-11-28T20:47:13.979Z,100818.53
2022-11-28T20:50:16.247Z,100815.88
2022-11-28T20:53:23.664Z,100810.94
2022-11-28T20:56:30.953Z,100806.97
2022-11-28T20:59:33.387Z,100807.84
2022-11-28T21:02:35.741Z,100810.63
2022-11-28T21:05:38.145Z,100812.25
2022-11-28T21:08:41.020Z,100823.28
2022-11-28T21:11:56.987Z,100820.66
2022-11-28T21:15:02.104Z,100824.44
2022-11-28T21:18:04.759Z,100828.56
2022-11-28T21:21:18.463Z,100831.66
2022-11-28T21:24:20.781Z,100823.94
2022-11-28T21:27:23.080Z,100824.13
2022-11-28T21:30:25.344Z,100831.03
2022-11-28T21:33:27.588Z,100820.16
2022-11-28T21:36:30.542Z,100830.56
2022-11-28T21:39:32.883Z,100818.53
2022-11-28T21:42:35.133Z,100823.63
2022-11-28T21:45:37.667Z,100824.63
2022-11-28T21:48:40.145Z,100822.16
2022-11-28T21:51:42.467Z,100825.28
2022-11-28T21:54:44.889Z,100826.78
2022-11-28T21:57:47.520Z,100821.19
2022-11-28T22:00:56.462Z,100834.00
2022-11-28T22:04:02.827Z,100827.09
2022-11-28T22:07:07.068Z,100825.44
2022-11-28T22:10:09.667Z,100828.44
2022-11-28T22:13:12.059Z,100818.34
2022-11-28T22:16:19.603Z,100831.88
2022-11-28T22:19:22.338Z,100842.06
2022-11-28T22:22:27.438Z,100833.03
2022-11-28T22:25:29.840Z,100827.59
2022-11-28T22:28:34.203Z,100837.28
2022-11-28T22:31:36.745Z,100829.41
2022-11-28T22:34:40.185Z,100836.66
2022-11-28T22:37:43.511Z,100829.38
2022-11-28T22:40:45.961Z,100827.25
2022-11-28T22:43:48.584Z,100828.59
2022-11-28T22:46:52.448Z,100832.03
2022-11-28T22:49:54.721Z,100829.22
2022-11-28T22:52:57.134Z,100829.72
2022-11-28T22:56:07.781Z,100822.50
2022-11-28T22:59:14.651Z,100834.84
2022-11-28T23:02:17.467Z,100824.13
2022-11-28T23:05:20.604Z,100822.81
2022-11-28T23:08:23.611Z,100833.53
2022-11-28T23:11:28.104Z,100822.47
2022-11-28T23:14:30.777Z,100836.50
2022-11-28T23:17:33.978Z,100826.09
2022-11-28T23:20:36.430Z,100821.84
2022-11-28T23:23:39.509Z,100836.16
2022-11-28T23:26:42.108Z,100845.06
2022-11-28T23:29:44.861Z,100822.50
2022-11-28T23:32:48.700Z,100827.75
2022-11-28T23:35:51.224Z,100834.34
2022-11-28T23:38:58.958Z,100830.88
2022-11-28T23:42:01.334Z,100835.00
2022-11-28T23:45:04.103Z,100832.53
2022-11-28T23:48:06.571Z,100834.34
2022-11-28T23:51:08.866Z,100826.91
2022-11-28T23:54:11.893Z,100828.09
2022-11-28T23:57:14.154Z,100820.00
